Time;durP1;ratioP1;P1;durP2;ratioP2;P2;SDS_P1;SDS_P2;PMS_P1;PMS_P2;Temp;Humidity;BMP_temperature;BMP_pressure;BME280_temperature;BME280_humidity;BME280_pressure;Samples;Min_cycle;Max_cycle;Signal;HPM_P1;HPM_P2
2023/06/29 00:01:00;;;;;;;;;;;;;;;22.76;53.22;101211.78;4986551;28;4204;-74
2023/06/29 00:03:27;;;;;;;;;;;;;;;22.76;52.86;101211.78;4983796;28;4056;-77
2023/06/29 00:05:57;;;;;;;;;;;;;;;22.76;52.92;101217.56;4988176;28;4759;-80
2023/06/29 00:08:27;;;;;;;;;;;;;;;22.73;52.90;101205.19;4990578;28;4150;-80
2023/06/29 00:10:54;;;;;;;;;;;;;;;22.77;53.05;101205.34;4987269;28;4102;-80
2023/06/29 00:13:20;;;;;;;;;;;;;;;22.78;52.82;101203.19;4987927;28;4137;-80
2023/06/29 00:15:47;;;;;;;;;;;;;;;22.76;53.11;101200.22;4988049;28;4242;-80
2023/06/29 00:18:13;;;;;;;;;;;;;;;22.75;53.18;101213.19;4999826;28;4303;-80
2023/06/29 00:20:40;;;;;;;;;;;;;;;22.74;53.09;101211.69;4987102;28;4173;-78
2023/06/29 00:23:06;;;;;;;;;;;;;;;22.76;53.13;101206.00;4986105;28;4105;-76
2023/06/29 00:25:33;;;;;;;;;;;;;;;22.74;52.82;101209.53;4984249;28;4334;-76
2023/06/29 00:27:59;;;;;;;;;;;;;;;22.74;53.19;101208.81;4988999;28;4180;-76
2023/06/29 00:30:26;;;;;;;;;;;;;;;22.73;52.86;101208.06;4994965;28;6134;-77
2023/06/29 00:32:52;;;;;;;;;;;;;;;22.74;52.82;101203.03;4988236;28;4165;-77
2023/06/29 00:35:19;;;;;;;;;;;;;;;22.73;52.83;101207.31;4986530;28;4143;-77
2023/06/29 00:37:45;;;;;;;;;;;;;;;22.71;52.83;101207.25;5002607;28;3987;-77
2023/06/29 00:40:12;;;;;;;;;;;;;;;22.71;52.82;101207.25;4989099;28;4262;-77
2023/06/29 00:42:39;;;;;;;;;;;;;;;22.70;53.04;101202.84;4989603;28;4059;-76
2023/06/29 00:45:05;;;;;;;;;;;;;;;22.70;53.00;101188.41;5002413;28;4108;-77
2023/06/29 00:47:32;;;;;;;;;;;;;;;22.69;52.60;101189.81;4991596;28;3913;-77
2023/06/29 00:49:59;;;;;;;;;;;;;;;22.68;53.00;101189.09;5002515;28;3898;-77
2023/06/29 00:52:26;;;;;;;;;;;;;;;22.68;52.69;101186.22;4991835;28;4256;-77
2023/06/29 00:54:53;;;;;;;;;;;;;;;22.68;52.71;101191.25;5006207;28;4848;-77
2023/06/29 00:57:19;;;;;;;;;;;;;;;22.67;52.64;101186.84;4988947;28;4173;-77
2023/06/29 00:59:46;;;;;;;;;;;;;;;22.67;52.63;101187.59;4988073;28;4037;-77
2023/06/29 01:02:15;;;;;;;;;;;;;;;22.66;52.83;101173.84;4988291;28;4475;-77
2023/06/29 01:04:45;;;;;;;;;;;;;;;22.65;52.87;101181.00;4990664;28;3964;-77
2023/06/29 01:07:20;;;;;;;;;;;;;;;22.65;52.85;101175.22;4987458;28;4516;-76
2023/06/29 01:09:46;;;;;;;;;;;;;;;22.64;52.54;101173.75;4990355;28;4240;-77
2023/06/29 01:12:13;;;;;;;;;;;;;;;22.62;52.62;101167.88;4990463;28;4310;-77
2023/06/29 01:14:39;;;;;;;;;;;;;;;22.62;52.57;101173.66;4988962;28;4251;-76
2023/06/29 01:17:05;;;;;;;;;;;;;;;22.62;52.75;101173.66;4990504;28;4196;-77
2023/06/29 01:19:33;;;;;;;;;;;;;;;22.61;52.63;101178.69;5003613;28;4207;-76
2023/06/29 01:22:04;;;;;;;;;;;;;;;22.56;52.43;101172.00;5013081;28;4266;-76
2023/06/29 01:24:40;;;;;;;;;;;;;;;22.57;52.66;101166.97;4984782;28;3955;-77
2023/06/29 01:27:07;;;;;;;;;;;;;;;22.56;52.40;101163.34;4989057;28;4462;-76
2023/06/29 01:29:33;;;;;;;;;;;;;;;22.55;52.69;101153.19;4983993;28;4031;-77
2023/06/29 01:32:03;;;;;;;;;;;;;;;22.56;52.37;101153.94;4988872;28;4158;-71
2023/06/29 01:34:30;;;;;;;;;;;;;;;22.56;52.41;101154.69;4990038;28;4038;-77
2023/06/29 01:37:06;;;;;;;;;;;;;;;22.55;52.49;101158.22;4999661;28;3998;-76
2023/06/29 01:39:36;;;;;;;;;;;;;;;22.55;52.57;101152.44;4972415;28;4542;-76
2023/06/29 01:42:03;;;;;;;;;;;;;;;22.54;52.44;101162.50;4988346;28;4107;-76
2023/06/29 01:44:29;;;;;;;;;;;;;;;22.53;52.49;101155.97;4993314;28;4214;-75
2023/06/29 01:46:55;;;;;;;;;;;;;;;22.53;52.64;101158.13;5003983;28;4337;-76
2023/06/29 01:49:22;;;;;;;;;;;;;;;22.51;52.38;101155.91;4994716;28;4135;-77
2023/06/29 01:51:48;;;;;;;;;;;;;;;22.52;52.64;101151.63;4991211;28;4194;-76
2023/06/29 01:54:15;;;;;;;;;;;;;;;22.52;52.54;101154.50;4996320;28;4367;-77
2023/06/29 01:56:41;;;;;;;;;;;;;;;22.51;52.39;101149.38;4986380;28;4348;-77
2023/06/29 01:59:08;;;;;;;;;;;;;;;22.51;52.20;101147.25;4989253;28;4495;-77
2023/06/29 02:01:34;;;;;;;;;;;;;;;22.51;52.06;101147.25;4992160;28;4003;-76
2023/06/29 02:04:01;;;;;;;;;;;;;;;22.49;52.17;101152.91;4988721;28;4565;-77
2023/06/29 02:06:28;;;;;;;;;;;;;;;22.50;52.15;101150.81;4991927;28;4241;-77
2023/06/29 02:08:54;;;;;;;;;;;;;;;22.49;52.13;101144.25;4992885;28;4391;-77
2023/06/29 02:11:21;;;;;;;;;;;;;;;22.49;52.26;101149.31;4988383;28;5061;-76
2023/06/29 02:13:47;;;;;;;;;;;;;;;22.48;52.17;101142.06;4988995;28;4313;-77
2023/06/29 02:16:14;;;;;;;;;;;;;;;22.47;52.28;101152.88;4985902;28;3942;-77
2023/06/29 02:18:42;;;;;;;;;;;;;;;22.46;52.07;101148.47;4986358;28;4584;-77
2023/06/29 02:21:08;;;;;;;;;;;;;;;22.46;52.12;101151.38;4987983;28;4180;-77
2023/06/29 02:23:37;;;;;;;;;;;;;;;22.45;52.32;101149.88;4988429;28;4049;-77
2023/06/29 02:26:03;;;;;;;;;;;;;;;22.47;51.97;101157.88;4984510;28;4329;-77
2023/06/29 02:28:35;;;;;;;;;;;;;;;22.45;51.88;101149.13;4988007;28;5087;-68
2023/06/29 02:31:01;;;;;;;;;;;;;;;22.45;52.09;101158.53;5001670;28;4181;-70
2023/06/29 02:33:28;;;;;;;;;;;;;;;22.44;52.19;101154.16;5001586;28;4117;-77
2023/06/29 02:35:55;;;;;;;;;;;;;;;22.43;52.20;101164.22;4984597;28;4160;-77
2023/06/29 02:38:22;;;;;;;;;;;;;;;22.42;51.71;101153.34;4987619;28;4343;-76
2023/06/29 02:40:48;;;;;;;;;;;;;;;22.42;52.17;101151.19;4984857;28;4036;-76
2023/06/29 02:43:15;;;;;;;;;;;;;;;22.41;52.05;101161.25;4997128;28;4114;-76
2023/06/29 02:45:41;;;;;;;;;;;;;;;22.41;52.01;101160.50;5002164;28;4364;-76
2023/06/29 02:48:09;;;;;;;;;;;;;;;22.41;51.98;101161.25;4985594;28;4148;-77
2023/06/29 02:50:36;;;;;;;;;;;;;;;22.40;51.77;101165.53;5001032;28;4112;-76
2023/06/29 02:53:02;;;;;;;;;;;;;;;22.40;51.67;101153.25;5004198;28;4272;-76
2023/06/29 02:55:29;;;;;;;;;;;;;;;22.40;51.63;101170.56;4987368;28;4135;-77
2023/06/29 02:57:57;;;;;;;;;;;;;;;22.40;51.64;101161.91;5003045;28;4497;-77
2023/06/29 03:00:23;;;;;;;;;;;;;;;22.39;51.56;101158.28;4999809;28;4132;-76
2023/06/29 03:02:50;;;;;;;;;;;;;;;22.39;51.71;101164.06;5005041;28;4189;-77
2023/06/29 03:05:16;;;;;;;;;;;;;;;22.38;51.74;101168.34;4987476;28;4126;-76
2023/06/29 03:07:43;;;;;;;;;;;;;;;22.36;51.60;101165.38;4988614;28;4092;-77
2023/06/29 03:10:09;;;;;;;;;;;;;;;22.37;51.62;101172.63;5002481;28;4136;-76
2023/06/29 03:12:36;;;;;;;;;;;;;;;22.35;51.45;101176.16;4986591;28;4126;-76
2023/06/29 03:15:02;;;;;;;;;;;;;;;22.35;51.36;101179.03;4985134;28;4060;-76
2023/06/29 03:17:29;;;;;;;;;;;;;;;22.35;51.77;101175.41;4987899;28;4365;-76
2023/06/29 03:19:55;;;;;;;;;;;;;;;22.35;51.63;101172.53;4985828;28;4172;-76
2023/06/29 03:22:23;;;;;;;;;;;;;;;22.35;51.35;101163.88;4988611;28;4157;-76
2023/06/29 03:24:49;;;;;;;;;;;;;;;22.34;51.61;101163.13;4989320;28;4150;-76
2023/06/29 03:27:15;;;;;;;;;;;;;;;22.36;51.46;101176.91;4989439;28;3978;-77
2023/06/29 03:29:42;;;;;;;;;;;;;;;22.35;51.46;101172.53;5005109;28;4516;-76
2023/06/29 03:32:08;;;;;;;;;;;;;;;22.36;51.37;101166.09;5001450;28;4430;-76
2023/06/29 03:34:35;;;;;;;;;;;;;;;22.38;51.54;101177.00;4989375;28;3950;-76
2023/06/29 03:37:01;;;;;;;;;;;;;;;22.36;51.56;101171.13;4990127;28;4139;-77
2023/06/29 03:39:28;;;;;;;;;;;;;;;22.36;51.84;101176.91;4986322;28;4178;-76
2023/06/29 03:41:54;;;;;;;;;;;;;;;22.36;51.76;101168.25;4988061;28;3995;-76
2023/06/29 03:44:20;;;;;;;;;;;;;;;22.37;51.81;101163.97;4985036;28;4041;-76
2023/06/29 03:46:47;;;;;;;;;;;;;;;22.37;51.99;101172.63;4990385;28;4009;-76
2023/06/29 03:49:13;;;;;;;;;;;;;;;22.38;51.96;101165.47;4989465;28;4127;-76
2023/06/29 03:51:40;;;;;;;;;;;;;;;22.39;51.79;101164.06;4990428;28;4024;-75
2023/06/29 03:54:06;;;;;;;;;;;;;;;22.39;51.99;101158.28;4987494;28;3924;-76
2023/06/29 03:56:33;;;;;;;;;;;;;;;22.40;52.31;101159.00;4985819;28;4101;-76
2023/06/29 03:58:59;;;;;;;;;;;;;;;22.40;52.32;101167.66;4987856;28;4063;-76
2023/06/29 04:01:26;;;;;;;;;;;;;;;22.40;52.23;101161.91;4989901;28;4120;-77
2023/06/29 04:03:53;;;;;;;;;;;;;;;22.40;52.44;101150.34;4985691;28;4011;-76
2023/06/29 04:06:19;;;;;;;;;;;;;;;22.40;52.61;101170.56;4986692;28;4429;-76
2023/06/29 04:08:46;;;;;;;;;;;;;;;22.40;52.55;101170.56;4983499;28;4113;-76
2023/06/29 04:11:12;;;;;;;;;;;;;;;22.39;52.57;101169.81;4987495;28;4020;-76
2023/06/29 04:13:39;;;;;;;;;;;;;;;22.40;52.72;101170.56;4982424;28;4125;-77
2023/06/29 04:16:05;;;;;;;;;;;;;;;22.39;52.80;101175.59;4987011;28;4031;-77
2023/06/29 04:18:34;;;;;;;;;;;;;;;22.40;52.96;101171.28;4986074;28;4129;-77
2023/06/29 04:21:00;;;;;;;;;;;;;;;22.39;52.90;101175.59;4985413;28;4152;-77
2023/06/29 04:23:26;;;;;;;;;;;;;;;22.40;52.91;101165.53;4984871;28;4183;-75
2023/06/29 04:25:53;;;;;;;;;;;;;;;22.39;53.22;101169.81;4984641;28;4217;-76
2023/06/29 04:28:19;;;;;;;;;;;;;;;22.39;53.28;101175.59;4985688;28;4190;-76
2023/06/29 04:30:46;;;;;;;;;;;;;;;22.41;53.35;101178.56;4986149;28;4257;-76
2023/06/29 04:33:15;;;;;;;;;;;;;;;22.40;53.43;101174.19;4988274;28;4266;-76
2023/06/29 04:35:41;;;;;;;;;;;;;;;22.42;53.31;101176.41;4986225;28;4186;-76
2023/06/29 04:38:11;;;;;;;;;;;;;;;22.42;53.39;101167.75;4986163;28;4213;-76
2023/06/29 04:40:37;;;;;;;;;;;;;;;22.42;53.45;101168.50;4987000;28;4022;-76
2023/06/29 04:43:04;;;;;;;;;;;;;;;22.41;53.42;101164.13;4985635;28;4059;-76
2023/06/29 04:45:31;;;;;;;;;;;;;;;22.41;53.29;101161.25;4983672;28;4143;-76
2023/06/29 04:47:58;;;;;;;;;;;;;;;22.42;53.48;101156.94;4985061;28;4157;-76
2023/06/29 04:50:25;;;;;;;;;;;;;;;22.42;53.57;101156.94;4981824;28;4006;-75
2023/06/29 04:52:52;;;;;;;;;;;;;;;22.43;53.74;101158.47;4986018;28;4154;-76
2023/06/29 04:55:19;;;;;;;;;;;;;;;22.44;53.51;101151.28;4986601;28;3993;-75
2023/06/29 04:57:45;;;;;;;;;;;;;;;22.44;53.61;101154.16;4986895;28;4352;-75
2023/06/29 05:00:12;;;;;;;;;;;;;;;22.44;53.80;101142.63;4986766;28;4156;-75
2023/06/29 05:02:38;;;;;;;;;;;;;;;22.44;53.55;101154.16;4984989;28;4000;-75
2023/06/29 05:05:05;;;;;;;;;;;;;;;22.47;53.75;101147.09;4986631;28;4162;-74
2023/06/29 05:07:32;;;;;;;;;;;;;;;22.49;53.45;101150.03;4988752;28;4159;-75
2023/06/29 05:09:58;;;;;;;;;;;;;;;22.49;53.68;101155.81;4990363;28;4092;-75
2023/06/29 05:12:25;;;;;;;;;;;;;;;22.33;54.55;101149.34;4983501;28;4133;-76
2023/06/29 05:14:51;;;;;;;;;;;;;;;22.14;55.48;101160.06;4983697;28;4234;-74
2023/06/29 05:17:18;;;;;;;;;;;;;;;21.75;56.87;101146.81;4985760;28;4120;-74
2023/06/29 05:19:44;;;;;;;;;;;;;;;21.72;57.43;101147.41;4985270;28;4143;-73
2023/06/29 05:22:11;;;;;;;;;;;;;;;21.69;57.75;101143.69;4991894;28;4082;-81
2023/06/29 05:24:37;;;;;;;;;;;;;;;21.67;58.01;101155.13;4983568;28;4543;-81
2023/06/29 05:27:04;;;;;;;;;;;;;;;21.77;57.24;101142.56;4988818;28;4030;-80
2023/06/29 05:29:30;;;;;;;;;;;;;;;21.89;57.12;101154.63;4991607;28;4000;-81
2023/06/29 05:31:56;;;;;;;;;;;;;;;21.92;56.94;101150.44;4992500;28;4028;-83
2023/06/29 05:34:23;;;;;;;;;;;;;;;21.87;57.35;101151.66;4988367;28;4375;-82
2023/06/29 05:36:50;;;;;;;;;;;;;;;21.89;56.74;101143.09;4990271;28;4167;-81
2023/06/29 05:39:16;;;;;;;;;;;;;;;21.96;56.96;101139.09;4988156;28;4082;-81
2023/06/29 05:41:42;;;;;;;;;;;;;;;21.98;57.05;101149.97;4991022;28;4083;-81
2023/06/29 05:44:09;;;;;;;;;;;;;;;21.91;56.86;101143.19;4993342;28;4128;-81
2023/06/29 05:46:35;;;;;;;;;;;;;;;21.95;56.82;101138.34;4992466;28;4162;-81
2023/06/29 05:49:02;;;;;;;;;;;;;;;21.99;56.50;101146.44;4993044;28;4039;-81
2023/06/29 05:51:28;;;;;;;;;;;;;;;22.03;56.56;101152.38;4992654;28;4175;-81
2023/06/29 05:53:55;;;;;;;;;;;;;;;22.10;56.48;101150.50;4991364;28;4038;-81
2023/06/29 05:56:21;;;;;;;;;;;;;;;22.12;56.37;101136.91;4997644;28;4065;-82
2023/06/29 05:58:48;;;;;;;;;;;;;;;22.58;58.77;101143.22;4988927;28;4051;-71
2023/06/29 06:01:14;;;;;;;;;;;;;;;22.93;57.28;101143.88;4988998;28;4061;-73
2023/06/29 06:03:41;;;;;;;;;;;;;;;23.02;56.75;101144.97;4989222;28;3927;-73
2023/06/29 06:06:07;;;;;;;;;;;;;;;23.14;56.49;101145.47;4989976;28;4184;-73
2023/06/29 06:08:34;;;;;;;;;;;;;;;23.23;55.33;101158.06;4987954;28;4034;-74
2023/06/29 06:11:00;;;;;;;;;;;;;;;23.09;55.66;101152.47;4988018;28;4222;-71
2023/06/29 06:13:27;;;;;;;;;;;;;;;22.69;55.51;101149.41;4986326;28;4140;-75
2023/06/29 06:15:53;;;;;;;;;;;;;;;22.55;56.15;101153.19;4984124;28;4340;-70
2023/06/29 06:18:21;;;;;;;;;;;;;;;22.07;57.11;101157.59;4988221;28;4446;-70
2023/06/29 06:20:47;;;;;;;;;;;;;;;22.45;56.81;101167.19;4993086;28;4044;-70
2023/06/29 06:23:14;;;;;;;;;;;;;;;22.47;56.38;101149.97;4991209;28;4109;-70
2023/06/29 06:25:40;;;;;;;;;;;;;;;22.58;56.60;101156.91;4989283;28;4104;-71
2023/06/29 06:28:07;;;;;;;;;;;;;;;22.64;56.49;101153.53;4988368;28;4161;-69
2023/06/29 06:30:33;;;;;;;;;;;;;;;22.50;57.57;101157.31;4990646;28;4294;-67
2023/06/29 06:33:01;;;;;;;;;;;;;;;22.74;57.62;101151.06;4988991;28;4122;-71
2023/06/29 06:35:28;;;;;;;;;;;;;;;22.73;57.78;101155.38;4979846;28;4468;-70
2023/06/29 06:37:55;;;;;;;;;;;;;;;23.01;57.04;101147.13;4991715;28;5039;-69
2023/06/29 06:40:21;;;;;;;;;;;;;;;22.78;56.67;101151.97;4991520;28;4142;-74
2023/06/29 06:42:47;;;;;;;;;;;;;;;22.48;57.96;101153.59;4992128;28;4111;-73
2023/06/29 06:45:16;;;;;;;;;;;;;;;22.48;57.62;101160.09;4989980;28;4150;-74
2023/06/29 06:47:42;;;;;;;;;;;;;;;22.46;57.63;101148.47;4993761;28;4147;-73
2023/06/29 06:50:09;;;;;;;;;;;;;;;22.43;57.73;101141.16;4988961;28;4447;-73
2023/06/29 06:52:35;;;;;;;;;;;;;;;22.54;57.87;101150.94;4991011;28;4054;-69
2023/06/29 06:55:04;;;;;;;;;;;;;;;22.93;57.15;101155.44;4989188;28;4612;-71
2023/06/29 06:57:30;;;;;;;;;;;;;;;23.11;56.83;101152.56;4987277;28;4175;-72
2023/06/29 06:59:56;;;;;;;;;;;;;;;22.94;57.40;101143.22;4989185;28;4353;-73
2023/06/29 07:02:23;;;;;;;;;;;;;;;22.92;57.52;101146.03;4989112;28;4162;-74
2023/06/29 07:04:50;;;;;;;;;;;;;;;23.11;56.86;101158.34;4986392;28;4033;-77
2023/06/29 07:07:17;;;;;;;;;;;;;;;23.34;56.19;101154.94;4987407;28;4139;-76
2023/06/29 07:09:43;;;;;;;;;;;;;;;23.32;56.52;101148.31;4985869;28;4258;-71
2023/06/29 07:12:10;;;;;;;;;;;;;;;23.48;55.68;101148.19;5000479;28;4342;-72
2023/06/29 07:14:36;;;;;;;;;;;;;;;23.33;56.54;101150.56;4989211;28;4338;-73
2023/06/29 07:17:03;;;;;;;;;;;;;;;23.28;56.28;101143.13;4984643;28;5165;-73
2023/06/29 07:19:29;;;;;;;;;;;;;;;23.14;56.15;101146.22;4984426;28;4063;-69
2023/06/29 07:21:59;;;;;;;;;;;;;;;23.03;56.71;101144.31;4984071;28;4584;-72
2023/06/29 07:24:28;;;;;;;;;;;;;;;22.90;56.68;101137.28;4977404;28;4124;-72
2023/06/29 07:26:54;;;;;;;;;;;;;;;22.83;56.77;101134.81;4980972;28;4238;-71
2023/06/29 07:29:21;;;;;;;;;;;;;;;22.65;56.60;101134.81;4982732;28;4051;-73
2023/06/29 07:31:47;;;;;;;;;;;;;;;22.69;56.90;101132.81;4983301;28;4137;-71
2023/06/29 07:34:14;;;;;;;;;;;;;;;22.62;56.69;101133.97;4983435;28;4147;-71
2023/06/29 07:36:40;;;;;;;;;;;;;;;22.58;56.57;101128.78;4984986;28;4327;-72
2023/06/29 07:39:07;;;;;;;;;;;;;;;22.63;56.45;101129.72;4981518;28;4207;-71
2023/06/29 07:41:33;;;;;;;;;;;;;;;22.68;56.57;101133.50;4985589;28;4078;-72
2023/06/29 07:44:00;;;;;;;;;;;;;;;22.65;56.33;101131.91;4984785;28;4063;-72
2023/06/29 07:46:26;;;;;;;;;;;;;;;22.56;56.02;101137.38;4986573;28;4318;-71
2023/06/29 07:48:54;;;;;;;;;;;;;;;22.57;56.06;101133.06;4982400;28;3944;-72
2023/06/29 07:51:21;;;;;;;;;;;;;;;22.61;55.91;101128.88;4983872;28;4069;-72
2023/06/29 07:53:48;;;;;;;;;;;;;;;22.57;55.81;101124.41;4984165;28;4127;-72
2023/06/29 07:56:14;;;;;;;;;;;;;;;22.57;55.55;101133.06;4984370;28;5094;-71
2023/06/29 07:58:41;;;;;;;;;;;;;;;22.55;56.32;101130.09;4986367;28;4212;-72
2023/06/29 08:01:08;;;;;;;;;;;;;;;22.53;56.22;101132.91;4985328;28;4164;-71
2023/06/29 08:03:34;;;;;;;;;;;;;;;22.55;56.33;101130.09;4980343;28;4199;-72
2023/06/29 08:06:21;;;;;;;;;;;;;;;22.51;56.59;101129.19;4980732;28;4158;-71
2023/06/29 08:08:51;;;;;;;;;;;;;;;22.52;56.82;101131.44;4984322;28;4133;-71
2023/06/29 08:11:17;;;;;;;;;;;;;;;22.73;56.64;101132.25;4984225;28;4143;-74
2023/06/29 08:13:44;;;;;;;;;;;;;;;22.89;55.70;101138.69;4990828;28;4461;-75
2023/06/29 08:16:10;;;;;;;;;;;;;;;22.92;55.62;101137.38;4991349;28;4298;-69
2023/06/29 08:18:37;;;;;;;;;;;;;;;22.84;55.64;101142.81;4989752;28;4076;-72
2023/06/29 08:21:03;;;;;;;;;;;;;;;22.64;56.46;101124.69;4988125;28;4242;-71
2023/06/29 08:23:33;;;;;;;;;;;;;;;22.21;58.17;101131.50;4987277;28;4843;-72
2023/06/29 08:25:59;;;;;;;;;;;;;;;21.54;60.15;101121.38;4991615;28;4020;-71
2023/06/29 08:28:26;;;;;;;;;;;;;;;22.63;56.96;101121.06;4988895;28;4153;-71
2023/06/29 08:30:52;;;;;;;;;;;;;;;22.91;56.39;101124.34;4988697;28;4346;-71
2023/06/29 08:33:18;;;;;;;;;;;;;;;22.78;56.09;101122.38;4985291;28;4135;-66
2023/06/29 08:35:45;;;;;;;;;;;;;;;22.80;56.49;101125.34;4991892;28;4452;-69
2023/06/29 08:38:11;;;;;;;;;;;;;;;22.88;55.64;101122.75;4987655;28;4021;-72
2023/06/29 08:40:38;;;;;;;;;;;;;;;22.89;55.63;101126.41;4978461;28;4101;-72
2023/06/29 08:43:04;;;;;;;;;;;;;;;22.45;57.31;101114.50;4991427;28;4025;-73
2023/06/29 08:45:31;;;;;;;;;;;;;;;21.98;59.30;101116.09;4992482;28;4482;-73
2023/06/29 08:47:57;;;;;;;;;;;;;;;22.10;57.98;101122.41;4986648;28;4235;-72
2023/06/29 08:50:25;;;;;;;;;;;;;;;22.59;57.23;101120.88;4993554;28;4193;-72
2023/06/29 08:52:52;;;;;;;;;;;;;;;23.09;55.07;101121.47;4992723;28;4098;-71
2023/06/29 08:55:18;;;;;;;;;;;;;;;23.31;54.53;101118.69;4989625;28;4187;-73
2023/06/29 08:57:45;;;;;;;;;;;;;;;23.33;54.97;101121.66;4985270;28;4122;-72
2023/06/29 09:00:11;;;;;;;;;;;;;;;23.30;54.93;101117.22;4995607;28;4368;-73
2023/06/29 09:02:38;;;;;;;;;;;;;;;23.14;55.25;101122.38;4982193;28;4122;-71
2023/06/29 09:05:05;;;;;;;;;;;;;;;23.23;55.26;101118.41;4994895;28;4591;-70
2023/06/29 09:07:31;;;;;;;;;;;;;;;23.32;54.54;101116.53;4984592;28;4194;-71
2023/06/29 09:09:58;;;;;;;;;;;;;;;23.24;54.98;101114.09;4989410;28;4254;-71
2023/06/29 09:12:25;;;;;;;;;;;;;;;23.27;55.00;101118.53;4990354;28;4237;-71
2023/06/29 09:14:53;;;;;;;;;;;;;;;23.30;54.64;101122.25;5004749;28;4186;-70
2023/06/29 09:17:21;;;;;;;;;;;;;;;23.24;54.61;101114.09;4999679;28;5220;-69
2023/06/29 09:19:49;;;;;;;;;;;;;;;23.31;54.55;101112.91;4996043;28;4323;-70
2023/06/29 09:22:16;;;;;;;;;;;;;;;23.29;54.83;101109.19;5001502;28;4565;-71
2023/06/29 09:24:42;;;;;;;;;;;;;;;23.31;54.59;101112.91;5000584;28;4101;-71
2023/06/29 09:27:26;;;;;;;;;;;;;;;23.18;55.24;101103.06;5006303;28;4077;-72
2023/06/29 09:29:53;;;;;;;;;;;;;;;23.04;54.83;101119.06;5002881;28;4038;-71
2023/06/29 09:32:19;;;;;;;;;;;;;;;23.31;54.69;101112.91;4986432;28;4201;-71
2023/06/29 09:34:47;;;;;;;;;;;;;;;23.41;54.99;101109.69;5001626;28;4181;-71
2023/06/29 09:37:16;;;;;;;;;;;;;;;23.39;54.45;101113.22;4985813;28;4185;-71
2023/06/29 09:39:49;;;;;;;;;;;;;;;23.42;54.47;101111.88;4998856;28;4275;-70
2023/06/29 09:42:16;;;;;;;;;;;;;;;23.53;54.42;101110.13;4991753;28;4123;-67
2023/06/29 09:44:44;;;;;;;;;;;;;;;23.51;54.00;101107.16;4991054;28;4266;-70
2023/06/29 09:47:10;;;;;;;;;;;;;;;23.56;53.71;101108.78;5000924;28;4343;-71
2023/06/29 09:49:48;;;;;;;;;;;;;;;23.70;54.10;101107.84;5001384;28;4016;-70
2023/06/29 09:52:16;;;;;;;;;;;;;;;23.54;53.68;101096.41;4992070;28;4162;-70
2023/06/29 09:54:42;;;;;;;;;;;;;;;23.63;53.48;101092.41;4996440;28;4037;-71
2023/06/29 09:57:11;;;;;;;;;;;;;;;23.81;53.71;101095.25;4996156;28;4121;-70
2023/06/29 09:59:41;;;;;;;;;;;;;;;23.80;53.51;101103.19;4998068;28;4324;-70
2023/06/29 10:02:08;;;;;;;;;;;;;;;23.70;53.53;101087.59;4998711;28;4091;-70
2023/06/29 10:04:41;;;;;;;;;;;;;;;23.66;53.75;101088.19;4996559;28;4106;-70
2023/06/29 10:07:08;;;;;;;;;;;;;;;23.64;53.10;101091.03;5006539;28;3973;-68
2023/06/29 10:09:35;;;;;;;;;;;;;;;23.66;53.13;101082.41;4990448;28;4270;-69
2023/06/29 10:12:01;;;;;;;;;;;;;;;23.89;53.46;101080.34;4994198;28;4031;-70
2023/06/29 10:14:36;;;;;;;;;;;;;;;23.99;52.20;101083.59;4995961;28;4092;-67
2023/06/29 10:17:04;;;;;;;;;;;;;;;23.82;52.04;101082.28;5002303;28;4257;-69
2023/06/29 10:19:31;;;;;;;;;;;;;;;24.04;52.04;101073.66;5007353;28;4104;-68
2023/06/29 10:22:00;;;;;;;;;;;;;;;23.92;51.62;101073.22;5000329;28;4050;-70
2023/06/29 10:24:31;;;;;;;;;;;;;;;23.56;52.73;101064.69;4988836;28;4107;-74
2023/06/29 10:26:58;;;;;;;;;;;;;;;23.00;52.69;101062.63;4999909;28;4198;-73
2023/06/29 10:29:24;;;;;;;;;;;;;;;23.69;51.62;101063.72;4996879;28;3977;-72
2023/06/29 10:31:55;;;;;;;;;;;;;;;23.96;50.66;101064.69;5000954;28;4036;-72
2023/06/29 10:34:21;;;;;;;;;;;;;;;23.99;49.99;101069.88;4987902;28;4154;-71
2023/06/29 10:36:48;;;;;;;;;;;;;;;22.97;51.94;101058.16;4982328;28;4442;-72
2023/06/29 10:39:34;;;;;;;;;;;;;;;23.19;52.54;101060.44;4992405;28;4266;-72
2023/06/29 10:42:00;;;;;;;;;;;;;;;23.60;51.46;101056.19;4993084;28;4036;-70
2023/06/29 10:44:33;;;;;;;;;;;;;;;23.56;51.65;101056.75;4992255;28;4061;-72
2023/06/29 10:46:59;;;;;;;;;;;;;;;23.78;51.60;101047.44;4990753;28;4203;-71
2023/06/29 10:49:26;;;;;;;;;;;;;;;22.72;53.51;101058.59;4989404;28;4028;-70
2023/06/29 10:51:53;;;;;;;;;;;;;;;23.09;53.09;101051.38;4988216;28;4128;-71
2023/06/29 10:54:23;;;;;;;;;;;;;;;22.83;54.14;101048.94;4986399;28;4195;-69
2023/06/29 10:56:55;;;;;;;;;;;;;;;22.81;54.89;101051.75;5004311;28;4071;-70
2023/06/29 10:59:22;;;;;;;;;;;;;;;22.78;52.53;101041.53;4986882;28;4166;-68
2023/06/29 11:01:49;;;;;;;;;;;;;;;23.57;51.74;101035.13;4984232;28;4452;-69
2023/06/29 11:04:15;;;;;;;;;;;;;;;23.79;50.88;101043.88;4980088;28;4156;-69
2023/06/29 11:06:42;;;;;;;;;;;;;;;23.08;52.35;101041.97;4984795;28;4117;-70
2023/06/29 11:09:12;;;;;;;;;;;;;;;23.48;52.78;101038.38;4987946;28;4121;-68
2023/06/29 11:11:38;;;;;;;;;;;;;;;23.33;51.94;101034.25;4986682;28;4152;-69
2023/06/29 11:14:05;;;;;;;;;;;;;;;23.77;51.91;101040.91;4985433;28;4136;-70
2023/06/29 11:16:32;;;;;;;;;;;;;;;23.80;51.84;101028.00;4999741;28;4332;-71
2023/06/29 11:19:02;;;;;;;;;;;;;;;23.73;51.74;101034.97;4989712;28;4116;-75
2023/06/29 11:21:28;;;;;;;;;;;;;;;23.68;51.86;101021.75;4985937;28;4886;-76
2023/06/29 11:23:55;;;;;;;;;;;;;;;23.88;52.08;101035.50;4992945;28;4151;-75
2023/06/29 11:26:22;;;;;;;;;;;;;;;24.05;51.57;101023.03;4994946;28;4043;-74
2023/06/29 11:28:49;;;;;;;;;;;;;;;24.16;51.51;101021.97;5009157;28;4048;-75
2023/06/29 11:31:16;;;;;;;;;;;;;;;24.13;51.75;101020.44;4992545;28;4281;-75
2023/06/29 11:33:49;;;;;;;;;;;;;;;24.11;51.74;101019.63;4993238;28;4354;-80
2023/06/29 11:36:25;;;;;;;;;;;;;;;24.16;51.85;101013.28;4992723;28;4214;-80
2023/06/29 11:39:04;;;;;;;;;;;;;;;24.28;52.07;101009.31;5012994;28;4057;-75
2023/06/29 11:41:31;;;;;;;;;;;;;;;24.49;51.60;101011.50;4997505;28;4427;-74
2023/06/29 11:44:00;;;;;;;;;;;;;;;24.57;51.07;101005.94;4990585;28;4530;-72
2023/06/29 11:46:26;;;;;;;;;;;;;;;24.37;51.46;100996.59;4989429;28;3880;-71
2023/06/29 11:48:56;;;;;;;;;;;;;;;24.31;51.64;100997.16;4993615;28;4052;-70
2023/06/29 11:51:24;;;;;;;;;;;;;;;24.33;51.78;100994.31;4991335;28;4124;-73
2023/06/29 11:53:54;;;;;;;;;;;;;;;24.48;51.59;100992.63;4987265;28;4894;-73
2023/06/29 11:56:24;;;;;;;;;;;;;;;24.52;51.51;100992.75;5005599;28;3984;-73
2023/06/29 11:58:51;;;;;;;;;;;;;;;24.60;51.58;100993.03;4994734;28;4077;-74
2023/06/29 12:01:17;;;;;;;;;;;;;;;24.58;51.36;100990.06;4993917;28;5622;-69
2023/06/29 12:03:46;;;;;;;;;;;;;;;24.56;51.51;100992.91;4988097;28;5210;-69
2023/06/29 12:06:13;;;;;;;;;;;;;;;24.69;51.90;100985.31;4986537;28;6049;-71
2023/06/29 12:08:40;;;;;;;;;;;;;;;24.81;51.56;100976.28;5002692;28;5025;-70
2023/06/29 12:11:17;;;;;;;;;;;;;;;24.57;51.89;100977.00;4990057;28;4364;-76
2023/06/29 12:13:46;;;;;;;;;;;;;;;24.49;52.48;100970.97;4987588;28;4215;-75
2023/06/29 12:16:13;;;;;;;;;;;;;;;24.49;52.77;100970.97;5003429;28;4351;-75
2023/06/29 12:18:42;;;;;;;;;;;;;;;24.52;53.02;100971.78;5001282;28;4042;-73
2023/06/29 12:21:08;;;;;;;;;;;;;;;24.53;53.25;100964.56;5007944;28;4350;-73
2023/06/29 12:23:35;;;;;;;;;;;;;;;24.84;52.73;100964.06;4990343;28;4708;-70
2023/06/29 12:26:02;;;;;;;;;;;;;;;24.90;52.55;100960.63;4994657;28;4350;-70
2023/06/29 12:28:28;;;;;;;;;;;;;;;24.91;52.53;100962.06;5011975;28;4154;-71
2023/06/29 12:30:55;;;;;;;;;;;;;;;24.91;52.65;100959.19;4991536;28;4193;-73
2023/06/29 12:33:21;;;;;;;;;;;;;;;24.90;52.37;100957.72;4995022;28;4007;-73
2023/06/29 12:35:48;;;;;;;;;;;;;;;24.78;52.92;100957.34;4986972;28;4068;-72
2023/06/29 12:38:14;;;;;;;;;;;;;;;24.85;52.71;100953.97;4986567;28;4170;-72
2023/06/29 12:40:41;;;;;;;;;;;;;;;24.88;52.64;100957.66;4991638;28;4246;-73
2023/06/29 12:43:07;;;;;;;;;;;;;;;24.89;52.71;100944.63;4990989;28;4357;-73
2023/06/29 12:45:34;;;;;;;;;;;;;;;24.92;52.51;100945.44;4994288;28;4400;-73
2023/06/29 12:48:00;;;;;;;;;;;;;;;25.00;52.30;100952.22;4993986;28;4876;-73